createdAt,value
2023-02-22T00:00:12.580Z,12.3
2023-02-22T00:05:14.826Z,12.3
2023-02-22T00:10:16.985Z,12.3
2023-02-22T00:15:19.277Z,12.3
2023-02-22T00:20:21.408Z,12.3
2023-02-22T00:25:23.540Z,12.3
2023-02-22T00:30:25.758Z,12.3
2023-02-22T00:35:27.807Z,12.3
2023-02-22T00:40:30.081Z,12.3
2023-02-22T00:45:32.307Z,12.3
2023-02-22T00:50:34.372Z,12.3
2023-02-22T00:55:36.513Z,12.3
2023-02-22T01:00:38.643Z,12.3
2023-02-22T01:05:40.751Z,12.3
2023-02-22T01:10:43.005Z,12.2
2023-02-22T01:15:45.214Z,12.2
2023-02-22T01:20:47.300Z,12.2
2023-02-22T01:25:49.523Z,12.2
2023-02-22T01:30:51.832Z,12.2
2023-02-22T01:35:53.819Z,12.2
2023-02-22T01:40:56.074Z,12.2
2023-02-22T01:45:58.271Z,12.2
2023-02-22T01:51:00.366Z,12.2
2023-02-22T01:56:02.622Z,12.2
2023-02-22T02:01:04.803Z,12.2
2023-02-22T02:06:06.939Z,12.2
2023-02-22T02:11:09.379Z,12.2
2023-02-22T02:16:11.233Z,12.2
2023-02-22T02:21:13.504Z,12.2
2023-02-22T02:26:15.724Z,12.2
2023-02-22T02:31:18.276Z,12.3
2023-02-22T02:36:20.128Z,12.3
2023-02-22T02:41:22.260Z,12.2
2023-02-22T02:46:24.448Z,12.2
2023-02-22T02:51:26.646Z,12.2
2023-02-22T02:56:28.786Z,12.2
2023-02-22T03:01:30.966Z,12.2
2023-02-22T03:06:33.046Z,12.1
2023-02-22T03:11:35.303Z,12.1
2023-02-22T03:16:37.514Z,12.1
2023-02-22T03:21:39.732Z,12.1
2023-02-22T03:26:41.897Z,12.1
2023-02-22T03:31:44.074Z,12.2
2023-02-22T03:36:46.285Z,12.2
2023-02-22T03:41:48.435Z,12.2
2023-02-22T03:46:50.719Z,12.2
2023-02-22T03:51:52.862Z,12.2
2023-02-22T03:56:54.984Z,12.2
2023-02-22T04:01:57.231Z,12.2
2023-02-22T04:06:59.482Z,12.2
2023-02-22T04:12:01.648Z,12.2
2023-02-22T04:17:03.876Z,12.2
2023-02-22T04:22:06.003Z,12.1
2023-02-22T04:27:08.144Z,12.1
2023-02-22T04:32:10.369Z,12.1
2023-02-22T04:37:12.414Z,12.1
2023-02-22T04:42:14.657Z,12.1
2023-02-22T04:47:16.854Z,12.1
2023-02-22T04:52:18.965Z,12.1
2023-02-22T04:57:21.102Z,12
2023-02-22T05:02:23.363Z,12
2023-02-22T05:07:25.440Z,12
2023-02-22T05:12:27.660Z,12
2023-02-22T05:17:29.825Z,12
2023-02-22T05:22:31.934Z,12
2023-02-22T05:27:34.254Z,12
2023-02-22T05:32:36.424Z,12
2023-02-22T05:37:38.534Z,12
2023-02-22T05:42:40.813Z,11.9
2023-02-22T05:47:42.966Z,11.9
2023-02-22T05:52:45.169Z,11.9
2023-02-22T05:57:47.413Z,11.9
2023-02-22T06:02:49.626Z,11.9
2023-02-22T06:07:51.741Z,11.9
2023-02-22T06:12:54.008Z,11.9
2023-02-22T06:17:56.206Z,11.9
2023-02-22T06:22:58.326Z,11.9
2023-02-22T06:28:00.478Z,11.9
2023-02-22T06:33:02.630Z,11.9
2023-02-22T06:38:04.815Z,11.9
2023-02-22T06:43:07.002Z,11.9
2023-02-22T06:48:09.278Z,11.9
2023-02-22T06:53:11.396Z,11.9
2023-02-22T06:58:13.522Z,11.9
2023-02-22T07:03:15.847Z,11.9
2023-02-22T07:08:18.155Z,11.9
2023-02-22T07:13:20.308Z,11.9
2023-02-22T07:18:22.546Z,11.9
2023-02-22T07:23:24.691Z,11.9
2023-02-22T07:28:26.810Z,11.9
2023-02-22T07:33:29.062Z,11.9
2023-02-22T07:38:31.255Z,11.9
2023-02-22T07:43:33.394Z,11.8
2023-02-22T07:48:35.686Z,11.8
2023-02-22T07:58:40.047Z,11.8
2023-02-22T08:03:42.340Z,11.7
2023-02-22T08:08:44.566Z,11.7
2023-02-22T08:13:46.706Z,11.7
2023-02-22T08:18:49.028Z,11.7
2023-02-22T08:23:51.230Z,11.7
2023-02-22T08:28:53.384Z,11.7
2023-02-22T08:33:55.636Z,11.7
2023-02-22T08:38:57.756Z,11.8
2023-02-22T08:44:00.033Z,12
2023-02-22T08:49:02.183Z,12.1
2023-02-22T08:54:04.385Z,12.3
2023-02-22T08:59:06.610Z,12.3
2023-02-22T09:04:08.777Z,12.4
2023-02-22T09:09:10.900Z,12.4
2023-02-22T09:14:13.129Z,12.4
2023-02-22T09:19:15.382Z,12.3
2023-02-22T09:24:17.526Z,12.2
2023-02-22T09:29:19.687Z,12.1
2023-02-22T09:34:21.911Z,12.1
2023-02-22T09:39:24.153Z,12
2023-02-22T09:44:26.290Z,12
2023-02-22T09:49:28.425Z,12
2023-02-22T09:54:30.612Z,12
2023-02-22T09:59:32.730Z,12.1
2023-02-22T10:04:35.087Z,12.1
2023-02-22T10:09:37.142Z,12.1
2023-02-22T10:14:39.286Z,12
2023-02-22T10:19:41.563Z,12
2023-02-22T10:24:43.688Z,12
2023-02-22T10:29:45.810Z,12
2023-02-22T10:34:48.101Z,12
2023-02-22T10:39:50.351Z,12
2023-02-22T10:44:52.472Z,12
2023-02-22T10:49:54.861Z,12
2023-02-22T10:55:12.681Z,12
2023-02-22T10:59:59.190Z,12
2023-02-22T11:05:01.439Z,12
2023-02-22T11:10:03.534Z,12
2023-02-22T11:15:05.693Z,12.1
2023-02-22T11:20:07.953Z,12.1
2023-02-22T11:25:10.197Z,12
2023-02-22T11:30:12.385Z,12
2023-02-22T11:35:14.549Z,12
2023-02-22T11:40:16.643Z,11.9
2023-02-22T11:45:18.892Z,11.9
2023-02-22T11:50:21.065Z,11.8
2023-02-22T11:55:32.886Z,11.8
2023-02-22T12:00:25.311Z,11.8
2023-02-22T12:05:27.480Z,11.8
2023-02-22T12:10:29.711Z,11.8
2023-02-22T12:15:31.942Z,11.9
2023-02-22T12:20:34.044Z,11.9
2023-02-22T12:25:36.160Z,11.9
2023-02-22T12:30:38.643Z,11.9
2023-02-22T12:35:40.667Z,11.9
2023-02-22T12:40:42.794Z,12
2023-02-22T12:45:45.034Z,12
2023-02-22T12:50:47.313Z,12
2023-02-22T12:55:49.504Z,12
2023-02-22T13:00:51.649Z,12
2023-02-22T13:05:53.787Z,12
2023-02-22T13:10:55.899Z,12
2023-02-22T13:15:58.045Z,12
2023-02-22T13:21:00.345Z,12
2023-02-22T13:26:02.478Z,12
2023-02-22T13:31:04.602Z,11.9
2023-02-22T13:36:06.756Z,11.9
2023-02-22T13:41:08.880Z,11.9
2023-02-22T13:46:11.046Z,11.9
2023-02-22T13:51:13.169Z,11.9
2023-02-22T13:56:15.843Z,11.9
2023-02-22T14:01:17.601Z,11.9
2023-02-22T14:06:19.724Z,11.8
2023-02-22T14:11:21.826Z,11.8
2023-02-22T14:16:23.981Z,11.8
2023-02-22T14:21:26.441Z,11.8
2023-02-22T14:26:28.393Z,11.8
2023-02-22T14:31:36.783Z,11.8
2023-02-22T14:36:32.932Z,11.9
2023-02-22T14:41:35.063Z,11.9
2023-02-22T14:46:37.276Z,11.9
2023-02-22T14:51:39.588Z,11.9
2023-02-22T14:56:41.710Z,12
2023-02-22T15:01:53.058Z,12
2023-02-22T15:06:46.410Z,12
2023-02-22T15:11:48.427Z,12
2023-02-22T15:16:50.667Z,12
2023-02-22T15:21:53.012Z,12
2023-02-22T15:27:01.500Z,12
2023-02-22T15:31:57.474Z,12
2023-02-22T15:36:59.853Z,12
2023-02-22T15:42:01.877Z,12
2023-02-22T15:47:04.136Z,12
2023-02-22T15:52:06.450Z,12
2023-02-22T15:57:08.565Z,12
2023-02-22T16:02:10.801Z,12
2023-02-22T16:07:13.081Z,12
2023-02-22T16:12:15.233Z,12
2023-02-22T16:17:17.514Z,12
2023-02-22T16:22:19.689Z,12
2023-02-22T16:27:21.785Z,12
2023-02-22T16:32:24.085Z,12
2023-02-22T16:37:26.390Z,12
2023-02-22T16:42:28.503Z,12
2023-02-22T16:47:30.754Z,12
2023-02-22T16:52:32.948Z,12
2023-02-22T16:57:35.037Z,12
2023-02-22T17:02:37.170Z,12
2023-02-22T17:07:39.344Z,12
2023-02-22T17:12:41.455Z,12
2023-02-22T17:17:43.708Z,12
2023-02-22T17:22:45.951Z,12
2023-02-22T17:27:48.085Z,12
2023-02-22T17:32:50.325Z,12
2023-02-22T17:37:52.498Z,12
2023-02-22T17:42:54.834Z,12
2023-02-22T17:47:56.972Z,12
2023-02-22T17:52:59.278Z,12
2023-02-22T17:58:01.549Z,11.9
2023-02-22T18:03:03.701Z,11.9
2023-02-22T18:08:05.910Z,11.9
2023-02-22T18:13:08.043Z,11.9
2023-02-22T18:18:10.183Z,11.9
2023-02-22T18:23:12.434Z,11.8
2023-02-22T18:28:14.676Z,11.8
2023-02-22T18:33:16.830Z,11.8
2023-02-22T18:38:18.996Z,11.8
2023-02-22T18:43:21.115Z,11.8
2023-02-22T18:48:23.245Z,11.8
2023-02-22T18:53:25.514Z,11.8
2023-02-22T18:58:27.621Z,11.8
2023-02-22T19:03:30.055Z,11.8
2023-02-22T19:08:32.397Z,11.9
2023-02-22T19:13:34.466Z,11.9
2023-02-22T19:18:36.739Z,11.9
2023-02-22T19:23:39.789Z,11.9
2023-02-22T19:28:41.166Z,11.9
2023-02-22T19:33:43.330Z,11.9
2023-02-22T19:38:45.489Z,11.9
2023-02-22T19:43:47.692Z,11.9
2023-02-22T19:48:49.849Z,11.9
2023-02-22T19:53:52.008Z,11.9
2023-02-22T19:58:54.192Z,11.9
2023-02-22T20:03:56.619Z,11.9
2023-02-22T20:08:58.619Z,11.9
2023-02-22T20:14:00.718Z,11.9
2023-02-22T20:19:02.861Z,11.9
2023-02-22T20:24:05.110Z,11.9
2023-02-22T20:29:07.222Z,11.9
2023-02-22T20:34:09.729Z,11.9
2023-02-22T20:39:11.642Z,11.9
2023-02-22T20:44:13.749Z,11.9
2023-02-22T20:49:15.877Z,11.9
2023-02-22T20:54:18.205Z,11.9
2023-02-22T20:59:20.424Z,11.9
2023-02-22T21:04:22.695Z,11.9
2023-02-22T21:09:24.982Z,11.9
2023-02-22T21:14:27.101Z,11.9
2023-02-22T21:19:29.414Z,11.9
2023-02-22T21:24:31.601Z,11.9
2023-02-22T21:29:33.710Z,11.9
2023-02-22T21:34:35.848Z,11.9
2023-02-22T21:39:38.014Z,11.9
2023-02-22T21:44:40.187Z,11.9
2023-02-22T21:49:42.361Z,11.9
2023-02-22T21:54:44.534Z,11.9
2023-02-22T21:59:46.650Z,11.9
2023-02-22T22:04:48.789Z,11.9
2023-02-22T22:09:51.359Z,11.9
2023-02-22T22:14:53.544Z,11.9
2023-02-22T22:19:55.700Z,11.9
2023-02-22T22:24:57.849Z,11.9
2023-02-22T22:30:00.060Z,12
2023-02-22T22:35:02.263Z,12
2023-02-22T22:40:04.431Z,12
2023-02-22T22:45:06.533Z,12.1
2023-02-22T22:50:08.779Z,12.1
2023-02-22T22:55:11.047Z,12.1
2023-02-22T23:00:13.315Z,12.1
2023-02-22T23:05:15.542Z,12
2023-02-22T23:10:17.828Z,12
2023-02-22T23:15:20.001Z,12
2023-02-22T23:20:22.291Z,12
2023-02-22T23:25:24.453Z,12
2023-02-22T23:30:26.675Z,12
2023-02-22T23:35:28.782Z,12
2023-02-22T23:40:30.958Z,12
2023-02-22T23:45:33.175Z,12
2023-02-22T23:50:35.327Z,12
2023-02-22T23:55:37.496Z,12
